KCKN/CKN METAR and TAF weather

Enter ICAO airport designator
Station Type Date Time Source
KCKN METAR 2021/03/05 00:35 UTC NOAA

KCKN 050035Z AUTO 16003KT 10SM CLR 04/M02 A3029 RMK AO2


Station Type Date Time Source
KCKN Decoded METAR 2021/03/05 00:35 UTC NOAA

Crookston Municipal Field, MN, United States (KCKN) 47-51N 096-37W
Mar 04, 2021 - 07:35 PM EST / 2021.03.05 0035 UTC
Wind: from the SSE (160 degrees) at 3 MPH (3 KT):0
Visibility: 10 mile(s):0
Sky conditions: clear
Temperature: 39 F (4 C)
Dew Point: 28 F (-2 C)
Relative Humidity: 64%
Pressure (altimeter): 30.29 in. Hg (1025 hPa)
ob: KCKN 050035Z AUTO 16003KT 10SM CLR 04/M02 A3029 RMK AO2
cycle: 0

Station Type Date Time Source
KCKN TAF UTC NOAA

Error!

Example: see airport list